Time;durP1;ratioP1;P1;durP2;ratioP2;P2;SDS_P1;SDS_P2;PMS_P1;PMS_P2;Temp;Humidity;BMP_temperature;BMP_pressure;BME280_temperature;BME280_humidity;BME280_pressure;Samples;Min_cycle;Max_cycle;Signal;HPM_P1;HPM_P2
2022/06/14 00:00:58;;;;;;;5.97;2.40;;;10.20;99.90;;;;;;5032499;28;20482;-72
2022/06/14 00:03:24;;;;;;;5.97;2.47;;;10.20;99.90;;;;;;5032419;28;20126;-70
2022/06/14 00:05:50;;;;;;;5.93;2.55;;;10.20;99.90;;;;;;5032174;28;20513;-71
2022/06/14 00:08:17;;;;;;;5.57;2.60;;;10.10;99.90;;;;;;5032300;28;20127;-71
2022/06/14 00:10:44;;;;;;;5.75;3.10;;;10.10;99.90;;;;;;5032097;28;20041;-71
2022/06/14 00:13:12;;;;;;;5.82;2.40;;;10.10;99.90;;;;;;5032007;28;20041;-71
2022/06/14 00:15:37;;;;;;;8.05;2.80;;;10.10;99.90;;;;;;5015721;28;20684;-72
2022/06/14 00:18:03;;;;;;;5.38;2.70;;;10.10;99.90;;;;;;5031998;28;20056;-71
2022/06/14 00:20:29;;;;;;;6.32;2.50;;;10.10;99.90;;;;;;5032098;28;20381;-71
2022/06/14 00:22:55;;;;;;;8.00;2.95;;;10.00;99.90;;;;;;5032044;28;20532;-71
2022/06/14 00:25:28;;;;;;;10.55;3.15;;;10.00;99.90;;;;;;5031991;28;20048;-71
2022/06/14 00:27:54;;;;;;;4.88;2.50;;;10.00;99.90;;;;;;5015560;28;20037;-72
2022/06/14 00:30:22;;;;;;;4.85;2.55;;;10.00;99.90;;;;;;5032046;28;20043;-71
2022/06/14 00:32:48;;;;;;;6.28;2.67;;;10.00;99.90;;;;;;5031944;28;20482;-71
2022/06/14 00:35:14;;;;;;;7.30;2.42;;;9.90;99.90;;;;;;5031883;28;20490;-70
2022/06/14 00:37:39;;;;;;;4.93;2.70;;;9.90;99.90;;;;;;5031769;28;20053;-71
2022/06/14 00:40:07;;;;;;;7.25;2.83;;;9.90;99.90;;;;;;5032164;28;20106;-71
2022/06/14 00:42:33;;;;;;;5.80;2.53;;;9.90;99.90;;;;;;5017720;28;20552;-71
2022/06/14 00:45:27;;;;;;;5.20;2.20;;;9.80;99.90;;;;;;5035691;28;20049;-71
2022/06/14 00:48:04;;;;;;;6.20;2.72;;;9.80;99.90;;;;;;5019418;28;20453;-72
2022/06/14 00:50:34;;;;;;;6.80;2.50;;;9.80;99.90;;;;;;5035716;28;20120;-71
2022/06/14 00:53:09;;;;;;;7.03;2.85;;;9.70;99.90;;;;;;5035387;28;20047;-72
2022/06/14 00:55:52;;;;;;;7.25;2.70;;;9.70;99.90;;;;;;5035592;28;20151;-71
2022/06/14 00:58:28;;;;;;;7.07;2.45;;;9.70;99.90;;;;;;5035420;28;20044;-71
2022/06/14 01:01:14;;;;;;;5.80;2.35;;;9.70;99.90;;;;;;5035740;28;20044;-71
2022/06/14 01:03:45;;;;;;;5.07;2.55;;;9.60;99.90;;;;;;5035569;28;20124;-71
2022/06/14 01:06:24;;;;;;;6.68;2.95;;;9.60;99.90;;;;;;5035296;28;20045;-71
2022/06/14 01:08:58;;;;;;;5.07;2.60;;;9.60;99.90;;;;;;5035608;28;20422;-71
2022/06/14 01:11:30;;;;;;;6.78;2.90;;;9.60;99.90;;;;;;5035311;28;20052;-71
2022/06/14 01:13:56;;;;;;;;;;;9.50;99.90;;;;;;5035885;28;20076;-71
2022/06/14 01:16:22;;;;;;;5.07;2.55;;;9.50;99.90;;;;;;5035207;28;19950;-71
2022/06/14 01:18:48;;;;;;;6.57;2.78;;;9.50;99.90;;;;;;5034384;28;20407;-71
2022/06/14 01:21:15;;;;;;;7.35;3.08;;;9.50;99.90;;;;;;5035043;28;20055;-71
2022/06/14 01:23:41;;;;;;;6.05;2.78;;;9.50;99.90;;;;;;5018946;28;20498;-71
2022/06/14 01:26:25;;;;;;;5.43;2.42;;;9.50;99.90;;;;;;5035001;28;20072;-71
2022/06/14 01:28:55;;;;;;;4.28;2.78;;;9.50;99.90;;;;;;5018374;28;20495;-71
2022/06/14 01:31:23;;;;;;;7.18;3.45;;;9.40;99.90;;;;;;5034961;28;20044;-71
2022/06/14 01:33:54;;;;;;;7.15;3.03;;;9.40;99.90;;;;;;5034737;28;20122;-71
2022/06/14 01:36:25;;;;;;;6.67;3.07;;;9.40;99.90;;;;;;5035014;28;20052;-72
2022/06/14 01:38:53;;;;;;;10.02;3.05;;;9.40;99.90;;;;;;5034979;28;20287;-72
2022/06/14 01:41:47;;;;;;;7.50;3.30;;;9.40;99.90;;;;;;5034995;28;20124;-72
2022/06/14 01:44:37;;;;;;;5.80;3.30;;;9.40;99.90;;;;;;5034514;28;20052;-71
2022/06/14 01:47:23;;;;;;;6.90;2.90;;;9.30;99.90;;;;;;5018331;28;20386;-71
2022/06/14 01:52:51;;;;;;;8.02;3.00;;;9.30;99.90;;;;;;5034446;28;20041;-72
2022/06/14 01:55:30;;;;;;;8.77;3.30;;;9.30;99.90;;;;;;5033909;28;20134;-71
2022/06/14 01:58:17;;;;;;;3.75;3.08;;;9.30;99.90;;;;;;5034308;28;20044;-71
2022/06/14 02:00:52;;;;;;;3.53;2.63;;;9.30;99.90;;;;;;5034453;28;20433;-70
2022/06/14 02:06:25;;;;;;;4.40;2.40;;;9.20;99.90;;;;;;5034064;28;20056;-71
2022/06/14 02:09:13;;;;;;;6.20;2.92;;;9.20;99.90;;;;;;5034182;28;20040;-71
2022/06/14 02:11:38;;;;;;;5.60;2.45;;;9.20;99.90;;;;;;5034107;28;20079;-72
2022/06/14 02:14:23;;;;;;;4.50;2.50;;;9.20;99.90;;;;;;5033946;28;20072;-72
2022/06/14 02:17:01;;;;;;;7.47;2.63;;;9.10;99.90;;;;;;5034035;28;20033;-71
2022/06/14 02:19:35;;;;;;;4.60;2.75;;;9.10;99.90;;;;;;5033860;28;20124;-71
2022/06/14 02:22:22;;;;;;;5.93;2.70;;;9.10;99.90;;;;;;5033942;28;20036;-71
2022/06/14 02:25:03;;;;;;;5.13;2.90;;;9.00;99.90;;;;;;5033755;28;20063;-72
2022/06/14 02:27:35;;;;;;;4.82;2.38;;;9.00;99.90;;;;;;5033926;28;20049;-71
2022/06/14 02:30:07;;;;;;;4.80;2.60;;;9.00;99.90;;;;;;5033842;28;20037;-71
2022/06/14 02:32:51;;;;;;;6.55;3.08;;;9.00;99.90;;;;;;5033987;28;20077;-71
2022/06/14 02:35:37;;;;;;;5.00;3.08;;;9.00;99.90;;;;;;5017095;28;20490;-71
2022/06/14 02:38:19;;;;;;;6.28;3.20;;;8.90;99.90;;;;;;5033868;28;20383;-72
2022/06/14 02:40:56;;;;;;;6.60;3.08;;;8.90;99.90;;;;;;5033761;28;20445;-71
2022/06/14 02:43:29;;;;;;;5.38;3.38;;;8.90;99.90;;;;;;5033551;28;20123;-72
2022/06/14 02:46:00;;;;;;;6.03;3.80;;;8.90;99.90;;;;;;5033341;28;20537;-71
2022/06/14 02:48:37;;;;;;;6.95;3.53;;;8.90;99.90;;;;;;5034013;28;20123;-71
2022/06/14 02:51:08;;;;;;;7.38;3.63;;;8.90;99.90;;;;;;5016876;28;20041;-71
2022/06/14 02:53:40;;;;;;;8.93;3.92;;;8.90;99.90;;;;;;5016638;28;20103;-71
2022/06/14 02:56:32;;;;;;;7.13;3.70;;;8.90;99.90;;;;;;5033499;28;20057;-72
2022/06/14 02:59:39;;;;;;;6.68;4.13;;;9.00;99.90;;;;;;5032990;28;20043;-71
2022/06/14 03:02:31;;;;;;;9.07;3.85;;;9.00;99.90;;;;;;4972867;28;20490;-71
2022/06/14 03:05:04;;;;;;;7.93;3.50;;;9.00;99.90;;;;;;5016581;28;20041;-71
2022/06/14 03:07:45;;;;;;;5.65;3.70;;;9.00;99.90;;;;;;5033161;28;20044;-71
2022/06/14 03:10:12;;;;;;;6.47;4.03;;;9.00;99.90;;;;;;5032943;28;20067;-71
2022/06/14 03:12:55;;;;;;;8.32;4.30;;;9.00;99.90;;;;;;5016557;28;20136;-71
2022/06/14 03:15:53;;;;;;;5.18;3.70;;;9.00;99.90;;;;;;5033397;28;20040;-71
2022/06/14 03:18:34;;;;;;;7.13;3.55;;;9.10;99.90;;;;;;5016331;28;20041;-72
2022/06/14 03:21:19;;;;;;;8.25;3.90;;;9.10;99.90;;;;;;5033034;28;20049;-72
2022/06/14 03:23:50;;;;;;;6.70;3.13;;;9.10;99.90;;;;;;5016515;28;20048;-70
2022/06/14 03:26:47;;;;;;;7.85;3.40;;;9.10;99.90;;;;;;5032638;28;20118;-71
2022/06/14 03:29:22;;;;;;;5.85;3.58;;;9.10;99.90;;;;;;5032455;28;20049;-72
2022/06/14 03:32:22;;;;;;;5.30;3.38;;;9.10;99.90;;;;;;5032646;28;20392;-72
2022/06/14 03:35:05;;;;;;;8.15;3.80;;;9.10;99.90;;;;;;5016000;28;20053;-71
2022/06/14 03:37:31;;;;;;;6.72;3.70;;;9.20;99.90;;;;;;5032500;28;20055;-72
2022/06/14 03:40:02;;;;;;;7.80;3.45;;;9.20;99.90;;;;;;5032549;28;20054;-71
2022/06/14 03:42:28;;;;;;;7.03;3.45;;;9.20;99.90;;;;;;5016143;28;20045;-71
2022/06/14 03:44:53;;;;;;;6.15;3.88;;;9.20;99.90;;;;;;5032383;28;20044;-71
2022/06/14 03:47:23;;;;;;;8.57;4.10;;;9.30;99.90;;;;;;5032079;28;20389;-72
2022/06/14 03:50:09;;;;;;;4.97;3.78;;;9.30;99.90;;;;;;5032478;28;20079;-72
2022/06/14 03:52:44;;;;;;;8.23;4.00;;;9.40;99.90;;;;;;5015914;28;20490;-71
2022/06/14 03:55:12;;;;;;;7.60;3.85;;;9.40;99.90;;;;;;5032303;28;20114;-72
2022/06/14 03:57:59;;;;;;;5.25;3.53;;;9.40;99.90;;;;;;5015831;28;20071;-71
2022/06/14 04:00:39;;;;;;;6.85;3.63;;;9.40;99.90;;;;;;5032437;28;20048;-72
2022/06/14 04:03:38;;;;;;;6.45;3.92;;;9.50;99.90;;;;;;5032276;28;20044;-72
2022/06/14 04:06:33;;;;;;;5.63;3.38;;;9.50;99.90;;;;;;5015626;28;20048;-71
2022/06/14 04:09:09;;;;;;;7.05;4.20;;;9.60;99.90;;;;;;5015871;28;20040;-71
2022/06/14 04:12:01;;;;;;;7.95;3.50;;;9.60;99.90;;;;;;5015593;28;20041;-71
2022/06/14 04:14:44;;;;;;;8.32;3.92;;;9.70;99.90;;;;;;5032238;28;20037;-71
2022/06/14 04:17:36;;;;;;;10.75;4.50;;;9.70;99.90;;;;;;5033557;28;20059;-71
2022/06/14 04:20:15;;;;;;;6.93;3.90;;;9.80;99.90;;;;;;5036291;28;20045;-72
2022/06/14 04:22:57;;;;;;;6.18;3.97;;;9.80;99.90;;;;;;5036138;28;20094;-72
2022/06/14 04:25:40;;;;;;;8.13;4.13;;;9.90;99.90;;;;;;5036160;28;20064;-70
2022/06/14 04:28:16;;;;;;;10.18;4.40;;;10.00;99.90;;;;;;5019821;28;20441;-72
2022/06/14 04:31:17;;;;;;;7.05;4.10;;;10.10;99.90;;;;;;5019490;28;20127;-72
2022/06/14 04:34:12;;;;;;;9.00;5.03;;;10.20;99.90;;;;;;5035976;28;20041;-72
2022/06/14 04:36:47;;;;;;;9.45;4.63;;;10.30;99.90;;;;;;5035682;28;20039;-72
2022/06/14 04:39:22;;;;;;;9.00;3.97;;;10.40;99.90;;;;;;5035855;28;20053;-71
2022/06/14 04:42:12;;;;;;;8.55;5.00;;;10.60;99.90;;;;;;5035716;28;20080;-72
2022/06/14 04:44:40;;;;;;;8.80;4.90;;;10.70;99.90;;;;;;5035964;28;20045;-71
2022/06/14 04:47:29;;;;;;;8.15;4.72;;;10.80;99.90;;;;;;5035578;28;20041;-71
2022/06/14 04:50:06;;;;;;;6.72;4.68;;;10.90;99.90;;;;;;5035648;28;20525;-72
2022/06/14 04:52:40;;;;;;;11.50;5.30;;;10.90;99.90;;;;;;5019383;28;20425;-71
2022/06/14 04:55:31;;;;;;;9.55;4.82;;;11.10;99.90;;;;;;5035553;28;20679;-72
2022/06/14 04:58:11;;;;;;;6.60;4.60;;;11.20;99.90;;;;;;5035365;28;20128;-71
2022/06/14 05:00:44;;;;;;;9.77;4.25;;;11.40;99.90;;;;;;5035544;28;20040;-72
2022/06/14 05:03:19;;;;;;;8.32;4.50;;;11.50;99.90;;;;;;5035356;28;20132;-70
2022/06/14 05:05:49;;;;;;;10.25;4.72;;;11.60;99.90;;;;;;5035393;28;20041;-71
2022/06/14 05:08:28;;;;;;;9.70;4.78;;;11.70;99.90;;;;;;5035156;28;20052;-71
2022/06/14 05:11:00;;;;;;;8.02;4.22;;;11.90;99.90;;;;;;5035503;28;20044;-72
2022/06/14 05:13:44;;;;;;;8.68;4.68;;;12.00;99.90;;;;;;5035115;28;20086;-72
2022/06/14 05:16:19;;;;;;;9.95;4.30;;;12.10;99.90;;;;;;5034932;28;20126;-72
2022/06/14 05:19:12;;;;;;;8.10;4.25;;;12.20;99.90;;;;;;5018786;28;20418;-71
2022/06/14 05:21:47;;;;;;;6.43;4.15;;;12.30;99.90;;;;;;5035222;28;20530;-71
2022/06/14 05:24:13;;;;;;;9.32;4.95;;;12.40;99.90;;;;;;5018353;28;20056;-71
2022/06/14 05:26:54;;;;;;;7.97;3.88;;;12.60;99.90;;;;;;5034989;28;20040;-72
2022/06/14 05:29:29;;;;;;;6.88;3.92;;;12.70;99.90;;;;;;5033556;28;20402;-70
2022/06/14 05:32:14;;;;;;;8.30;3.97;;;12.80;99.90;;;;;;5034875;28;20052;-72
2022/06/14 05:34:54;;;;;;;7.13;3.65;;;13.00;99.90;;;;;;5034822;28;20047;-72
2022/06/14 05:37:36;;;;;;;7.53;3.58;;;13.10;99.90;;;;;;5018402;28;20045;-71
2022/06/14 05:40:22;;;;;;;6.35;3.40;;;13.30;99.90;;;;;;5018656;28;20040;-72
2022/06/14 05:43:16;;;;;;;8.30;3.47;;;13.40;99.90;;;;;;4989763;28;20067;-72
2022/06/14 05:45:54;;;;;;;9.68;3.55;;;13.60;99.90;;;;;;5027231;28;20053;-70
2022/06/14 05:48:31;;;;;;;6.03;3.55;;;14.20;99.90;;;;;;5034565;28;20041;-71
2022/06/14 05:51:00;;;;;;;8.15;2.92;;;15.70;99.90;;;;;;5034525;28;20044;-71
2022/06/14 05:53:43;;;;;;;6.00;3.40;;;17.30;99.90;;;;;;5034277;28;20495;-72
2022/06/14 05:56:33;;;;;;;10.40;3.00;;;18.40;99.90;;;;;;5034541;28;20122;-72
2022/06/14 05:59:11;;;;;;;7.97;2.97;;;19.70;99.90;;;;;;5017823;28;20083;-72
2022/06/14 06:01:46;;;;;;;8.63;2.78;;;20.80;99.90;;;;;;5034479;28;20405;-72
2022/06/14 06:04:23;;;;;;;6.43;2.45;;;21.70;99.90;;;;;;5034191;28;20041;-72
2022/06/14 06:06:55;;;;;;;6.80;2.42;;;22.40;96.50;;;;;;5017946;28;20452;-72
2022/06/14 06:09:21;;;;;;;6.43;2.30;;;;;;;;;;5034093;28;20041;-73
2022/06/14 06:11:50;;;;;;;9.40;2.85;;;23.30;95.20;;;;;;5034241;28;20045;-71
2022/06/14 06:14:32;;;;;;;7.40;2.42;;;23.80;93.90;;;;;;5017786;28;20391;-72
2022/06/14 06:17:07;;;;;;;5.47;2.15;;;24.10;90.00;;;;;;5033987;28;20123;-72
2022/06/14 06:20:01;;;;;;;7.25;2.60;;;24.70;88.20;;;;;;5033892;28;20041;-72
2022/06/14 06:22:31;;;;;;;6.22;2.28;;;25.00;88.70;;;;;;5033996;28;20505;-72
2022/06/14 06:25:02;;;;;;;6.10;2.17;;;25.20;86.60;;;;;;5033633;28;20086;-71
2022/06/14 06:27:34;;;;;;;7.68;2.10;;;24.90;86.40;;;;;;5033899;28;20033;-72
2022/06/14 06:30:06;;;;;;;;;;;25.00;86.60;;;;;;5034193;28;20041;-72
2022/06/14 06:32:31;;;;;;;;;;;25.00;79.70;;;;;;5034195;28;19967;-73
2022/06/14 06:34:58;;;;;;;9.10;2.40;;;;;;;;;;5034051;28;20323;-72
2022/06/14 06:37:42;;;;;;;5.15;1.80;;;25.50;81.90;;;;;;5033645;28;20041;-73
2022/06/14 06:40:24;;;;;;;7.30;2.40;;;25.90;82.00;;;;;;5033190;28;20509;-72
2022/06/14 06:43:11;;;;;;;5.70;2.17;;;26.30;78.30;;;;;;5033863;28;20120;-72
2022/06/14 06:45:40;;;;;;;5.43;2.15;;;26.30;75.40;;;;;;5033410;28;20057;-73
2022/06/14 06:48:23;;;;;;;3.97;1.73;;;26.30;75.30;;;;;;5033390;28;20072;-72
2022/06/14 06:50:52;;;;;;;5.18;2.30;;;26.30;73.60;;;;;;5033312;28;20401;-72
2022/06/14 06:53:20;;;;;;;5.60;1.80;;;;;;;;;;5033472;28;20181;-71
2022/06/14 06:56:05;;;;;;;4.47;1.60;;;27.00;72.90;;;;;;5033161;28;20546;-72
2022/06/14 06:58:51;;;;;;;7.32;2.42;;;27.30;72.30;;;;;;5033201;28;20049;-73
2022/06/14 07:01:41;;;;;;;6.55;1.90;;;27.30;70.20;;;;;;5016345;28;20049;-72
2022/06/14 07:04:12;;;;;;;5.45;1.83;;;27.10;69.10;;;;;;5032597;28;20460;-72
2022/06/14 07:06:53;;;;;;;3.90;1.73;;;26.30;66.00;;;;;;5033175;28;20140;-73
2022/06/14 07:09:38;;;;;;;5.95;1.88;;;26.50;67.80;;;;;;5016495;28;20036;-72
2022/06/14 07:12:14;;;;;;;5.32;2.00;;;26.80;66.80;;;;;;5033027;28;20037;-72
2022/06/14 07:14:55;;;;;;;5.32;2.25;;;26.90;68.20;;;;;;5032877;28;20048;-72
2022/06/14 07:17:25;;;;;;;4.80;1.80;;;27.30;68.70;;;;;;5033171;28;20045;-71
2022/06/14 07:20:06;;;;;;;7.60;2.22;;;27.10;65.60;;;;;;5033266;28;20339;-72
2022/06/14 07:22:41;;;;;;;6.53;1.92;;;27.10;67.10;;;;;;5033145;28;20052;-72
2022/06/14 07:25:26;;;;;;;7.78;2.30;;;27.00;66.10;;;;;;5032850;28;20080;-73
2022/06/14 07:28:07;;;;;;;5.75;1.50;;;26.50;65.50;;;;;;5032730;28;20052;-72
2022/06/14 07:30:40;;;;;;;4.93;1.80;;;27.10;68.30;;;;;;5016241;28;20170;-72
2022/06/14 07:33:06;;;;;;;3.60;1.25;;;26.30;65.30;;;;;;5032661;28;20139;-72
2022/06/14 07:36:00;;;;;;;5.45;1.60;;;25.60;65.50;;;;;;5032788;28;20160;-72
2022/06/14 07:38:47;;;;;;;5.97;1.55;;;24.50;67.70;;;;;;5013904;28;20048;-72
2022/06/14 07:41:15;;;;;;;4.20;1.50;;;24.30;69.40;;;;;;5032570;28;20047;-71
2022/06/14 07:43:57;;;;;;;4.93;1.55;;;24.40;67.40;;;;;;5032565;28;20045;-71
2022/06/14 07:46:37;;;;;;;5.00;1.70;;;24.90;65.00;;;;;;5015881;28;20462;-71
2022/06/14 07:49:14;;;;;;;4.82;1.67;;;24.20;67.50;;;;;;5032442;28;20094;-72
2022/06/14 07:51:51;;;;;;;5.55;1.60;;;24.50;65.40;;;;;;5015231;28;20037;-72
2022/06/14 07:54:28;;;;;;;3.15;1.23;;;25.00;65.50;;;;;;5032156;28;20131;-71
2022/06/14 07:57:15;;;;;;;4.32;1.70;;;25.30;65.70;;;;;;5032284;28;20094;-72
2022/06/14 07:59:49;;;;;;;6.15;1.60;;;25.40;65.90;;;;;;5032359;28;20033;-72
2022/06/14 08:02:31;;;;;;;3.75;1.40;;;25.90;66.00;;;;;;5032380;28;20037;-71
2022/06/14 08:05:05;;;;;;;6.00;1.60;;;25.30;64.60;;;;;;5032152;28;20040;-73
2022/06/14 08:07:32;;;;;;;4.03;1.35;;;25.10;64.20;;;;;;5032253;28;20033;-73
2022/06/14 08:10:00;;;;;;;4.88;1.35;;;24.30;65.00;;;;;;5032160;28;20086;-72
2022/06/14 08:12:35;;;;;;;3.88;1.60;;;23.30;66.30;;;;;;5032374;28;20041;-72
2022/06/14 08:15:16;;;;;;;4.93;1.40;;;22.90;66.70;;;;;;5032174;28;20044;-73
2022/06/14 08:17:59;;;;;;;3.77;1.30;;;22.50;68.60;;;;;;5015833;28;20479;-72
2022/06/14 08:20:41;;;;;;;4.65;1.35;;;22.50;69.40;;;;;;5032321;28;20049;-72
2022/06/14 08:23:14;;;;;;;4.80;1.50;;;22.40;69.50;;;;;;5032516;28;20040;-72
2022/06/14 08:25:43;;;;;;;4.78;1.42;;;22.00;69.80;;;;;;5031895;28;20045;-72
2022/06/14 08:28:43;;;;;;;3.88;1.40;;;22.10;68.70;;;;;;5031985;28;20124;-72
2022/06/14 08:31:17;;;;;;;3.70;1.35;;;21.90;71.10;;;;;;5032221;28;20070;-73
2022/06/14 08:34:17;;;;;;;5.30;1.70;;;21.70;71.20;;;;;;5032158;28;20045;-72
2022/06/14 08:36:52;;;;;;;6.45;2.15;;;21.10;70.40;;;;;;5032198;28;20075;-72
2022/06/14 08:39:31;;;;;;;3.42;1.45;;;20.90;71.90;;;;;;5031971;28;20047;-72
2022/06/14 08:42:18;;;;;;;4.78;1.45;;;20.90;73.10;;;;;;5032094;28;20033;-71
2022/06/14 08:44:48;;;;;;;2.55;1.15;;;20.80;73.20;;;;;;5015516;28;20037;-72
2022/06/14 08:47:39;;;;;;;4.57;1.40;;;20.80;74.00;;;;;;5031736;28;20056;-72
2022/06/14 08:50:34;;;;;;;3.92;1.50;;;20.90;73.10;;;;;;5032281;28;20048;-72
2022/06/14 08:53:27;;;;;;;3.20;1.40;;;20.20;73.10;;;;;;4978727;28;20054;-72
2022/06/14 08:56:09;;;;;;;2.28;1.27;;;20.80;73.30;;;;;;5031639;28;20061;-72
2022/06/14 08:59:12;;;;;;;2.20;1.17;;;20.70;77.00;;;;;;5031799;28;20056;-72
2022/06/14 09:01:59;;;;;;;4.50;1.52;;;20.10;73.30;;;;;;5031612;28;20049;-72
2022/06/14 09:05:02;;;;;;;2.33;1.45;;;19.80;76.80;;;;;;5035059;28;20052;-72
2022/06/14 09:07:53;;;;;;;4.35;1.42;;;20.10;76.00;;;;;;5035209;28;20049;-73
2022/06/14 09:10:27;;;;;;;2.88;1.08;;;20.50;74.70;;;;;;5035436;28;20041;-73
2022/06/14 09:13:01;;;;;;;3.85;1.40;;;20.70;74.40;;;;;;5035423;28;20442;-73
2022/06/14 09:15:54;;;;;;;2.42;1.30;;;20.60;72.40;;;;;;5019038;28;20061;-73
2022/06/14 09:18:38;;;;;;;3.78;1.23;;;20.70;75.30;;;;;;5035263;28;20485;-72
2022/06/14 09:21:30;;;;;;;3.25;1.35;;;20.70;74.40;;;;;;5035111;28;20048;-72
2022/06/14 09:24:17;;;;;;;4.60;1.50;;;20.70;75.30;;;;;;5035129;28;20124;-72
2022/06/14 09:27:04;;;;;;;3.50;1.38;;;20.70;76.50;;;;;;5018477;28;20048;-72
2022/06/14 09:29:54;;;;;;;2.20;1.25;;;20.60;75.90;;;;;;5035147;28;20126;-72
2022/06/14 09:35:42;;;;;;;4.18;1.20;;;20.30;77.10;;;;;;5034855;28;20078;-72
2022/06/14 09:38:21;;;;;;;3.22;1.45;;;20.30;77.80;;;;;;5018585;28;20036;-72
2022/06/14 09:41:07;;;;;;;4.18;1.38;;;20.30;78.50;;;;;;5018505;28;20201;-72
2022/06/14 09:44:07;;;;;;;2.97;1.20;;;20.50;77.80;;;;;;5034582;28;20052;-72
2022/06/14 09:46:59;;;;;;;5.18;1.50;;;20.60;77.20;;;;;;5018070;28;20049;-72
2022/06/14 09:49:37;;;;;;;3.88;1.30;;;20.90;76.70;;;;;;5034580;28;20037;-72
2022/06/14 09:52:24;;;;;;;2.47;1.10;;;21.00;77.10;;;;;;5034476;28;20090;-72
2022/06/14 09:55:09;;;;;;;3.63;1.50;;;21.00;76.10;;;;;;5018009;28;20067;-71
2022/06/14 09:57:46;;;;;;;4.47;1.10;;;20.90;73.60;;;;;;5034404;28;20052;-72
2022/06/14 10:00:15;;;;;;;3.90;1.45;;;20.60;74.80;;;;;;5052180;28;20043;-72
2022/06/14 10:03:09;;;;;;;4.15;1.30;;;20.40;74.70;;;;;;5034387;28;20048;-72
2022/06/14 10:05:50;;;;;;;4.13;1.15;;;20.30;75.70;;;;;;5034295;28;20045;-71
2022/06/14 10:08:38;;;;;;;4.32;1.23;;;19.70;75.50;;;;;;5034473;28;20394;-71
2022/06/14 10:11:13;;;;;;;4.30;1.23;;;19.70;76.70;;;;;;5034224;28;20053;-71
2022/06/14 10:14:04;;;;;;;3.92;1.50;;;19.20;76.60;;;;;;5034343;28;20052;-71
2022/06/14 10:17:15;;;;;;;2.67;1.15;;;19.50;76.90;;;;;;5033897;28;20040;-72
2022/06/14 10:20:10;;;;;;;2.72;1.40;;;20.10;77.40;;;;;;5034401;28;20405;-70
2022/06/14 10:22:57;;;;;;;6.07;1.13;;;20.00;74.60;;;;;;5033725;28;20532;-72
2022/06/14 10:25:35;;;;;;;3.67;1.23;;;20.30;77.00;;;;;;5033956;28;20083;-70
2022/06/14 10:28:28;;;;;;;5.57;1.20;;;20.30;78.00;;;;;;5017236;28;20533;-72
2022/06/14 10:31:03;;;;;;;6.15;1.20;;;20.60;77.80;;;;;;5017521;28;20469;-72
2022/06/14 10:33:47;;;;;;;6.53;1.65;;;21.00;76.30;;;;;;5033756;28;20075;-72
2022/06/14 10:36:49;;;;;;;2.80;1.35;;;21.20;76.40;;;;;;5033732;28;20506;-72
2022/06/14 10:40:02;;;;;;;2.65;1.23;;;21.60;76.20;;;;;;5033606;28;20049;-73
2022/06/14 10:43:10;;;;;;;2.65;0.82;;;22.10;75.60;;;;;;5023034;28;20494;-72
2022/06/14 10:45:47;;;;;;;3.33;1.00;;;22.30;72.30;;;;;;5033593;28;20416;-71
2022/06/14 10:48:43;;;;;;;2.15;1.05;;;22.10;71.20;;;;;;5033521;28;20198;-72
2022/06/14 10:51:34;;;;;;;2.55;1.00;;;22.30;73.30;;;;;;5033618;28;20116;-71
2022/06/14 10:54:16;;;;;;;2.78;1.20;;;22.30;73.80;;;;;;5029880;28;20089;-73
2022/06/14 10:57:12;;;;;;;4.45;1.30;;;22.30;74.70;;;;;;5046948;28;20057;-72
2022/06/14 10:59:50;;;;;;;3.10;1.38;;;22.20;72.90;;;;;;5029958;28;20111;-72
2022/06/14 11:02:41;;;;;;;2.15;1.10;;;21.70;71.40;;;;;;5030139;28;20072;-72
2022/06/14 11:05:25;;;;;;;2.55;1.08;;;21.60;71.80;;;;;;5029953;28;20045;-72
2022/06/14 11:08:14;;;;;;;4.22;1.17;;;21.10;73.70;;;;;;5022300;23;20046;-75
2022/06/14 11:11:03;;;;;;;2.53;1.17;;;20.60;74.20;;;;;;5029590;28;20379;-76
2022/06/14 11:13:57;;;;;;;2.85;1.00;;;20.90;75.90;;;;;;5029632;28;20077;-76
2022/06/14 11:16:30;;;;;;;2.03;0.85;;;21.10;76.80;;;;;;5029726;28;20053;-75
2022/06/14 11:19:30;;;;;;;2.95;1.00;;;21.60;76.30;;;;;;5029451;28;20041;-75
2022/06/14 11:22:36;;;;;;;3.20;1.00;;;22.00;75.40;;;;;;5029943;28;20045;-75
2022/06/14 11:25:40;;;;;;;3.08;1.30;;;22.50;73.90;;;;;;5046104;28;20099;-75
2022/06/14 11:28:27;;;;;;;2.40;1.08;;;22.70;69.00;;;;;;4968752;28;20163;-75
2022/06/14 11:31:06;;;;;;;1.88;1.15;;;22.50;71.50;;;;;;5025992;28;20053;-75
2022/06/14 11:34:03;;;;;;;2.83;0.90;;;22.80;71.80;;;;;;5029281;28;20115;-76
2022/06/14 11:36:37;;;;;;;2.05;1.27;;;23.20;73.00;;;;;;4990229;28;20046;-76
2022/06/14 11:39:32;;;;;;;2.78;1.38;;;22.90;68.70;;;;;;5029257;28;20114;-75
2022/06/14 11:42:04;;;;;;;3.38;1.08;;;22.20;69.90;;;;;;5029524;28;20055;-76
2022/06/14 11:44:41;;;;;;;;;;;22.30;71.90;;;;;;5029595;28;20102;-73
2022/06/14 11:47:41;;;;;;;3.13;1.00;;;22.30;72.30;;;;;;5029176;28;19956;-75
2022/06/14 11:50:12;;;;;;;3.42;1.33;;;22.30;72.70;;;;;;5045640;28;20045;-76
2022/06/14 11:52:53;;;;;;;;;;;22.20;73.90;;;;;;5029684;28;20049;-75
2022/06/14 11:55:27;;;;;;;2.60;1.35;;;22.10;75.30;;;;;;5029122;28;19954;-74
2022/06/14 11:58:16;;;;;;;2.75;1.05;;;22.00;74.40;;;;;;5029325;28;20045;-74
2022/06/14 12:01:01;;;;;;;3.45;1.33;;;21.90;74.10;;;;;;5028940;28;20045;-75
2022/06/14 12:03:32;;;;;;;3.05;1.10;;;21.90;75.70;;;;;;5029477;28;20056;-75
2022/06/14 12:06:08;;;;;;;;;;;22.00;75.60;;;;;;5029262;28;20033;-75
2022/06/14 12:08:55;;;;;;;3.13;1.38;;;22.00;76.10;;;;;;5028831;28;19921;-75
2022/06/14 12:11:27;;;;;;;2.53;1.02;;;22.10;74.60;;;;;;5028901;28;20064;-75
2022/06/14 12:14:36;;;;;;;3.17;1.00;;;21.90;72.60;;;;;;5028955;28;20029;-75
2022/06/14 12:17:18;;;;;;;1.75;0.90;;;21.20;71.30;;;;;;5045786;28;20386;-75
2022/06/14 12:19:52;;;;;;;2.72;1.23;;;21.30;74.30;;;;;;5028836;28;20111;-75
2022/06/14 12:22:34;;;;;;;3.08;1.05;;;21.10;72.30;;;;;;5028863;28;20037;-75
2022/06/14 12:28:32;;;;;;;4.05;1.13;;;21.60;74.30;;;;;;5028720;28;20037;-75
2022/06/14 12:31:16;;;;;;;3.78;1.10;;;21.70;73.70;;;;;;5028598;28;20041;-75
2022/06/14 12:34:02;;;;;;;3.72;1.27;;;22.10;75.00;;;;;;5028849;28;20049;-75
2022/06/14 12:36:32;;;;;;;3.38;1.10;;;22.20;74.10;;;;;;5028840;28;20128;-75
2022/06/14 12:39:04;;;;;;;2.90;1.20;;;22.60;74.80;;;;;;5031537;28;20054;-75
2022/06/14 12:41:41;;;;;;;2.30;1.23;;;22.80;73.70;;;;;;5032602;28;20053;-77
2022/06/14 12:44:33;;;;;;;2.42;1.20;;;22.90;70.10;;;;;;5032802;28;20076;-75
2022/06/14 12:47:03;;;;;;;1.67;1.00;;;23.00;71.90;;;;;;4996131;28;20085;-75
2022/06/14 12:49:37;;;;;;;2.53;1.02;;;22.80;70.90;;;;;;5032716;28;20441;-75
2022/06/14 12:52:09;;;;;;;2.53;1.10;;;22.00;69.10;;;;;;5032374;28;20053;-75
2022/06/14 12:54:47;;;;;;;3.30;1.10;;;21.70;71.70;;;;;;5032604;28;20049;-74
2022/06/14 12:57:34;;;;;;;2.50;1.00;;;21.60;73.50;;;;;;5032279;28;20128;-74
2022/06/14 13:00:12;;;;;;;4.72;1.75;;;21.80;76.80;;;;;;5048836;28;20123;-75
2022/06/14 13:03:03;;;;;;;1.90;1.08;;;21.90;75.40;;;;;;5032572;28;20441;-76
2022/06/14 13:05:36;;;;;;;2.20;1.20;;;22.00;73.50;;;;;;5031959;28;20120;-75
2022/06/14 13:08:22;;;;;;;2.03;1.20;;;22.00;72.60;;;;;;5032221;28;20092;-75
2022/06/14 13:11:03;;;;;;;2.05;1.23;;;22.10;74.70;;;;;;5032135;28;20114;-74
2022/06/14 13:13:50;;;;;;;2.42;1.15;;;21.80;71.30;;;;;;5032170;28;20047;-75
2022/06/14 13:16:30;;;;;;;2.75;1.10;;;21.10;72.20;;;;;;5031865;28;20041;-74
2022/06/14 13:19:06;;;;;;;2.90;1.15;;;21.10;72.80;;;;;;5015571;28;20394;-75
2022/06/14 13:21:48;;;;;;;1.83;1.10;;;21.20;74.50;;;;;;5031978;28;20132;-75
2022/06/14 13:24:33;;;;;;;2.70;1.00;;;21.30;73.70;;;;;;5031877;28;20049;-75
2022/06/14 13:27:20;;;;;;;3.42;1.38;;;21.00;74.80;;;;;;5031578;28;20057;-74
2022/06/14 13:30:01;;;;;;;4.25;1.15;;;20.80;73.40;;;;;;5031885;28;20049;-75
2022/06/14 13:33:09;;;;;;;2.30;1.30;;;20.80;77.80;;;;;;5015212;28;20458;-75
2022/06/14 13:35:47;;;;;;;2.65;1.30;;;20.90;77.30;;;;;;5031588;28;20045;-75
2022/06/14 13:38:46;;;;;;;4.30;1.45;;;20.70;77.60;;;;;;5031601;28;20053;-75
2022/06/14 13:41:34;;;;;;;5.40;1.90;;;21.10;77.30;;;;;;5014958;28;20033;-75
2022/06/14 13:44:12;;;;;;;5.13;1.38;;;21.10;77.20;;;;;;5031731;28;20044;-74
2022/06/14 13:46:53;;;;;;;3.38;1.48;;;21.50;77.00;;;;;;5031277;28;20103;-74
2022/06/14 13:49:35;;;;;;;4.72;1.40;;;21.90;79.00;;;;;;5030419;28;20334;-74
2022/06/14 13:52:08;;;;;;;3.33;1.45;;;22.10;77.70;;;;;;5031337;28;20037;-74
2022/06/14 13:54:45;;;;;;;4.22;1.50;;;21.60;75.40;;;;;;5031257;28;20515;-74
2022/06/14 13:57:23;;;;;;;2.67;1.30;;;21.90;76.50;;;;;;5031399;28;20040;-75
2022/06/14 13:59:51;;;;;;;3.25;1.33;;;21.60;76.20;;;;;;5031162;28;20038;-75
2022/06/14 14:02:26;;;;;;;3.13;1.40;;;21.80;77.40;;;;;;5031017;28;20045;-75
2022/06/14 14:05:05;;;;;;;3.38;1.33;;;21.90;80.20;;;;;;5031360;28;20045;-76
2022/06/14 14:07:44;;;;;;;4.55;1.40;;;21.50;77.00;;;;;;5031122;28;20114;-75
2022/06/14 14:10:09;;;;;;;4.15;1.35;;;21.60;77.00;;;;;;5031291;28;20064;-75
2022/06/14 14:13:04;;;;;;;4.00;1.30;;;21.80;77.80;;;;;;5030796;28;20479;-75